createdAt,value
2023-09-05T00:02:18.609Z,102243.25
2023-09-05T00:04:45.861Z,102238.94
2023-09-05T00:07:13.114Z,102236.28
2023-09-05T00:09:39.675Z,102237.34
2023-09-05T00:12:07.954Z,102239.28
2023-09-05T00:14:34.400Z,102237.72
2023-09-05T00:17:00.956Z,102235.94
2023-09-05T00:19:27.468Z,102235.31
2023-09-05T00:21:53.900Z,102233.63
2023-09-05T00:24:34.499Z,102234.81
2023-09-05T00:27:05.133Z,102233.16
2023-09-05T00:29:34.946Z,102225.44
2023-09-05T00:32:01.700Z,102237.91
2023-09-05T00:34:29.439Z,102237.91
2023-09-05T00:36:56.650Z,102237.06
2023-09-05T00:39:23.131Z,102239.72
2023-09-05T00:41:49.565Z,102236.25
2023-09-05T00:44:16.140Z,102242.50
2023-09-05T00:46:43.312Z,102237.34
2023-09-05T00:49:11.768Z,102235.66
2023-09-05T00:51:39.014Z,102247.28
2023-09-05T00:54:07.282Z,102242.13
2023-09-05T00:56:36.487Z,102234.44
2023-09-05T00:59:04.576Z,102241.53
2023-09-05T01:01:31.691Z,102239.13
2023-09-05T01:03:58.726Z,102229.63
2023-09-05T01:06:56.119Z,102234.91
2023-09-05T01:09:38.043Z,102230.72
2023-09-05T01:12:05.840Z,102222.06
2023-09-05T01:14:32.580Z,102229.28
2023-09-05T01:17:02.420Z,102232.16
2023-09-05T01:19:30.947Z,102222.53
2023-09-05T01:22:02.435Z,102225.28
2023-09-05T01:24:28.901Z,102220.00
2023-09-05T01:26:57.023Z,102221.81
2023-09-05T01:29:30.948Z,102223.75
2023-09-05T01:32:00.465Z,102214.84
2023-09-05T01:34:26.885Z,102210.66
2023-09-05T01:36:53.372Z,102212.34
2023-09-05T01:39:20.530Z,102206.22
2023-09-05T01:41:47.009Z,102213.31
2023-09-05T01:44:13.492Z,102206.34
2023-09-05T01:46:40.047Z,102195.88
2023-09-05T01:49:06.889Z,102196.72
2023-09-05T01:51:33.452Z,102192.38
2023-09-05T01:53:59.918Z,102187.94
2023-09-05T01:56:27.501Z,102188.19
2023-09-05T01:58:53.931Z,102181.31
2023-09-05T02:01:20.394Z,102184.94
2023-09-05T02:03:47.145Z,102180.50
2023-09-05T02:06:17.756Z,102185.69
2023-09-05T02:08:44.281Z,102186.38
2023-09-05T02:11:10.973Z,102173.19
2023-09-05T02:13:37.661Z,102176.78
2023-09-05T02:16:04.440Z,102179.66
2023-09-05T02:18:30.944Z,102167.53
2023-09-05T02:21:02.243Z,102177.13
2023-09-05T02:23:29.247Z,102164.88
2023-09-05T02:26:02.807Z,102166.69
2023-09-05T02:28:29.794Z,102168.63
2023-09-05T02:30:56.994Z,102161.63
2023-09-05T02:33:24.186Z,102156.25
2023-09-05T02:35:51.338Z,102160.56
2023-09-05T02:38:17.792Z,102156.25
2023-09-05T02:40:47.793Z,102162.25
2023-09-05T02:43:14.984Z,102153.63
2023-09-05T02:45:41.637Z,102151.94
2023-09-05T02:48:08.739Z,102159.13
2023-09-05T02:50:35.433Z,102154.91
2023-09-05T02:53:01.949Z,102156.94
2023-09-05T02:55:28.402Z,102154.44
2023-09-05T02:57:54.937Z,102152.03
2023-09-05T03:00:21.731Z,102155.66
2023-09-05T03:02:50.581Z,102150.47
2023-09-05T03:05:17.131Z,102150.59
2023-09-05T03:07:43.524Z,102156.13
2023-09-05T03:10:10.179Z,102163.28
2023-09-05T03:12:36.592Z,102156.44
2023-09-05T03:15:03.253Z,102161.16
2023-09-05T03:17:29.709Z,102154.41
2023-09-05T03:19:56.141Z,102153.78
2023-09-05T03:22:22.558Z,102155.56
2023-09-05T03:24:49.085Z,102150.41
2023-09-05T03:27:15.562Z,102140.81
2023-09-05T03:29:42.005Z,102148.63
2023-09-05T03:32:08.440Z,102150.28
2023-09-05T03:34:35.702Z,102145.75
2023-09-05T03:37:02.279Z,102149.84
2023-09-05T03:39:28.715Z,102141.31
2023-09-05T03:41:59.933Z,102133.28
2023-09-05T03:44:26.368Z,102130.88
2023-09-05T03:46:55.025Z,102129.94
2023-09-05T03:49:21.496Z,102131.81
2023-09-05T03:51:48.048Z,102139.03
2023-09-05T03:54:14.728Z,102138.31
2023-09-05T03:56:41.278Z,102129.88
2023-09-05T03:59:07.732Z,102130.72
2023-09-05T04:01:35.993Z,102125.69
2023-09-05T04:04:02.551Z,102128.47
2023-09-05T04:06:29.160Z,102123.53
2023-09-05T04:08:55.624Z,102124.59
2023-09-05T04:11:22.122Z,102125.66
2023-09-05T04:13:49.414Z,102118.81
2023-09-05T04:16:15.962Z,102123.16
2023-09-05T04:18:42.642Z,102120.72
2023-09-05T04:21:09.434Z,102115.66
2023-09-05T04:23:35.902Z,102113.13
2023-09-05T04:26:03.095Z,102116.88
2023-09-05T04:28:31.247Z,102109.03
2023-09-05T04:31:03.158Z,102110.13
2023-09-05T04:33:39.581Z,102108.31
2023-09-05T04:36:09.975Z,102105.94
2023-09-05T04:38:37.495Z,102113.22
2023-09-05T04:41:05.123Z,102103.63
2023-09-05T04:43:31.670Z,102115.84
2023-09-05T04:45:58.785Z,102111.53
2023-09-05T04:48:26.252Z,102113.34
2023-09-05T04:50:54.027Z,102111.66
2023-09-05T04:53:21.802Z,102114.38
2023-09-05T04:55:51.792Z,102117.16
2023-09-05T04:58:18.285Z,102114.50
2023-09-05T05:00:44.785Z,102111.16
2023-09-05T05:03:11.480Z,102108.63
2023-09-05T05:05:38.048Z,102106.84
2023-09-05T05:08:04.870Z,102102.53
2023-09-05T05:10:34.926Z,102098.94
2023-09-05T05:13:01.427Z,102105.03
2023-09-05T05:15:28.128Z,102110.06
2023-09-05T05:17:54.707Z,102112.38
2023-09-05T05:20:21.297Z,102114.88
2023-09-05T05:22:47.739Z,102105.81
2023-09-05T05:25:14.274Z,102108.94
2023-09-05T05:27:41.850Z,102112.06
2023-09-05T05:30:09.816Z,102114.38
2023-09-05T05:32:36.228Z,102112.00
2023-09-05T05:35:02.866Z,102115.03
2023-09-05T05:37:30.447Z,102122.59
2023-09-05T05:39:56.972Z,102129.44
2023-09-05T05:42:23.463Z,102126.44
2023-09-05T05:44:49.942Z,102121.53
2023-09-05T05:47:16.404Z,102121.91
2023-09-05T05:49:42.836Z,102115.28
2023-09-05T05:52:11.768Z,102123.44
2023-09-05T05:54:38.126Z,102125.75
2023-09-05T05:57:04.787Z,102120.47
2023-09-05T05:59:31.301Z,102120.25
2023-09-05T06:01:58.360Z,102119.16
2023-09-05T06:04:25.736Z,102117.72
2023-09-05T06:06:54.096Z,102111.22
2023-09-05T06:09:20.848Z,102116.13
2023-09-05T06:11:47.885Z,102104.13
2023-09-05T06:14:15.837Z,102109.75
2023-09-05T06:16:42.725Z,102103.97
2023-09-05T06:19:09.774Z,102109.63
2023-09-05T06:21:36.462Z,102110.19
2023-09-05T06:24:02.970Z,102107.94
2023-09-05T06:26:29.490Z,102110.91
2023-09-05T06:28:55.920Z,102118.38
2023-09-05T06:31:22.480Z,102117.75
2023-09-05T06:33:48.982Z,102119.03
2023-09-05T06:36:15.444Z,102126.34
2023-09-05T06:38:42.901Z,102122.38
2023-09-05T06:41:11.210Z,102117.41
2023-09-05T06:43:38.554Z,102118.59
2023-09-05T06:46:06.819Z,102117.94
2023-09-05T06:48:35.821Z,102119.94
2023-09-05T06:51:02.470Z,102116.66
2023-09-05T06:53:29.940Z,102122.16
2023-09-05T06:55:56.448Z,102118.00
2023-09-05T06:58:24.838Z,102111.38
2023-09-05T07:00:56.025Z,102107.84
2023-09-05T07:03:26.704Z,102108.72
2023-09-05T07:06:04.953Z,102101.66
2023-09-05T07:08:33.216Z,102099.06
2023-09-05T07:10:59.760Z,102104.25
2023-09-05T07:13:26.611Z,102102.22
2023-09-05T07:15:53.896Z,102102.66
2023-09-05T07:18:20.675Z,102102.28
2023-09-05T07:20:47.180Z,102100.94
2023-09-05T07:23:13.608Z,102099.59
2023-09-05T07:25:40.484Z,102102.38
2023-09-05T07:28:07.689Z,102103.50
2023-09-05T07:30:34.564Z,102104.88
2023-09-05T07:33:01.295Z,102097.31
2023-09-05T07:35:27.750Z,102104.81
2023-09-05T07:37:54.260Z,102098.63
2023-09-05T07:40:23.618Z,102104.47
2023-09-05T07:42:51.607Z,102101.03
2023-09-05T07:45:18.193Z,102108.22
2023-09-05T07:47:45.441Z,102099.75
2023-09-05T07:50:12.166Z,102109.91
2023-09-05T07:52:38.886Z,102100.56
2023-09-05T07:55:06.001Z,102115.50
2023-09-05T07:57:32.637Z,102108.94
2023-09-05T07:59:59.175Z,102107.56
2023-09-05T08:02:25.643Z,102100.84
2023-09-05T08:04:52.130Z,102111.66
2023-09-05T08:07:18.732Z,102102.75
2023-09-05T08:09:45.742Z,102102.50
2023-09-05T08:12:12.299Z,102103.88
2023-09-05T08:14:39.017Z,102103.78
2023-09-05T08:17:05.455Z,102107.84
2023-09-05T08:19:32.798Z,102104.56
2023-09-05T08:21:59.364Z,102111.97
2023-09-05T08:24:25.860Z,102105.22
2023-09-05T08:26:52.357Z,102112.56
2023-09-05T08:29:20.065Z,102106.78
2023-09-05T08:31:46.654Z,102101.63
2023-09-05T08:34:13.172Z,102092.63
2023-09-05T08:36:39.642Z,102098.66
2023-09-05T08:39:06.214Z,102109.34
2023-09-05T08:41:32.861Z,102102.34
2023-09-05T08:44:00.098Z,102101.34
2023-09-05T08:46:29.469Z,102103.72
2023-09-05T08:48:56.738Z,102100.38
2023-09-05T08:51:31.478Z,102093.19
2023-09-05T08:54:00.583Z,102092.97
2023-09-05T08:56:27.482Z,102096.31
2023-09-05T08:58:58.028Z,102096.13
2023-09-05T09:01:26.999Z,102092.78
2023-09-05T09:03:58.412Z,102095.25
2023-09-05T09:06:27.745Z,102085.41
2023-09-05T09:08:55.263Z,102091.69
2023-09-05T09:11:23.594Z,102088.31
2023-09-05T09:13:57.874Z,102091.59
2023-09-05T09:16:24.544Z,102088.34
2023-09-05T09:19:01.158Z,102085.75
2023-09-05T09:21:29.978Z,102088.94
2023-09-05T09:24:09.065Z,102082.91
2023-09-05T09:26:39.799Z,102086.16
2023-09-05T09:29:10.332Z,102084.56
2023-09-05T09:31:38.834Z,102086.53
2023-09-05T09:34:07.439Z,102084.59
2023-09-05T09:36:35.798Z,102084.72
2023-09-05T09:39:12.064Z,102082.59
2023-09-05T09:41:48.974Z,102088.47
2023-09-05T09:44:26.970Z,102096.94
2023-09-05T09:46:55.272Z,102093.03
2023-09-05T09:49:24.357Z,102091.22
2023-09-05T09:51:57.341Z,102101.13
2023-09-05T09:54:36.165Z,102096.50
2023-09-05T09:57:05.392Z,102095.22
2023-09-05T09:59:37.196Z,102095.38
2023-09-05T10:02:14.940Z,102088.53
2023-09-05T10:04:43.623Z,102090.66
2023-09-05T10:07:17.740Z,102095.28
2023-09-05T10:09:49.150Z,102095.66
2023-09-05T10:12:20.282Z,102098.28
2023-09-05T10:14:48.808Z,102100.28
2023-09-05T10:17:16.321Z,102092.47
2023-09-05T10:19:45.254Z,102082.56
2023-09-05T10:22:17.764Z,102083.66
2023-09-05T10:24:44.839Z,102086.25
2023-09-05T10:27:12.166Z,102082.78
2023-09-05T10:29:43.388Z,102081.19
2023-09-05T10:32:23.172Z,102080.47
2023-09-05T10:34:49.735Z,102072.69
2023-09-05T10:37:19.352Z,102076.72
2023-09-05T10:39:47.681Z,102076.38
2023-09-05T10:42:15.009Z,102076.56
2023-09-05T10:44:51.415Z,102074.50
2023-09-05T10:47:29.508Z,102081.28
2023-09-05T10:50:06.654Z,102064.56
2023-09-05T10:52:33.660Z,102070.69
2023-09-05T10:55:33.150Z,102064.94
2023-09-05T10:58:00.301Z,102061.53
2023-09-05T11:00:30.895Z,102059.44
2023-09-05T11:03:15.590Z,102059.50
2023-09-05T11:05:43.632Z,102067.81
2023-09-05T11:08:24.076Z,102073.22
2023-09-05T11:10:56.495Z,102073.41
2023-09-05T11:13:23.217Z,102056.88
2023-09-05T11:15:58.928Z,102056.69
2023-09-05T11:18:25.471Z,102062.13
2023-09-05T11:20:51.941Z,102051.53
2023-09-05T11:23:28.986Z,102052.78
2023-09-05T11:25:57.831Z,102049.66
2023-09-05T11:28:25.221Z,102053.41
2023-09-05T11:31:04.236Z,102046.75
2023-09-05T11:33:31.233Z,102049.66
2023-09-05T11:35:58.722Z,102038.84
2023-09-05T11:38:27.054Z,102031.00
2023-09-05T11:40:56.617Z,102029.50
2023-09-05T11:43:23.868Z,102036.16
2023-09-05T11:45:56.108Z,102036.72
2023-09-05T11:48:24.453Z,102029.69
2023-09-05T11:50:52.069Z,102035.66
2023-09-05T11:53:20.590Z,102029.41
2023-09-05T11:55:48.576Z,102027.88
2023-09-05T11:58:17.847Z,102020.59
2023-09-05T12:00:46.058Z,102011.84
2023-09-05T12:03:16.346Z,102005.53
2023-09-05T12:05:44.158Z,102002.34
2023-09-05T12:08:29.639Z,101996.53
2023-09-05T12:10:58.476Z,101997.13
2023-09-05T12:13:40.985Z,101994.19
2023-09-05T12:16:09.535Z,102003.06
2023-09-05T12:18:36.287Z,101998.69
2023-09-05T12:21:02.776Z,101994.94
2023-09-05T12:23:30.508Z,101988.91
2023-09-05T12:25:58.413Z,101998.91
2023-09-05T12:28:26.908Z,101985.81
2023-09-05T12:31:06.723Z,101989.34
2023-09-05T12:33:33.960Z,101994.22
2023-09-05T12:36:00.581Z,101990.28
2023-09-05T12:38:30.675Z,101984.03
2023-09-05T12:41:00.734Z,101984.09
2023-09-05T12:43:27.231Z,101981.97
2023-09-05T12:45:54.765Z,101981.69
2023-09-05T12:48:21.281Z,101983.56
2023-09-05T12:50:50.241Z,101987.09
2023-09-05T12:53:20.761Z,101985.09
2023-09-05T12:55:49.898Z,101963.56
2023-09-05T12:58:16.450Z,101975.13
2023-09-05T13:00:43.463Z,101973.63
2023-09-05T13:03:12.247Z,101965.44
2023-09-05T13:05:40.319Z,101971.38
2023-09-05T13:08:06.854Z,101965.13
2023-09-05T13:10:33.432Z,101967.66
2023-09-05T13:13:02.746Z,101964.88
2023-09-05T13:15:31.975Z,101965.66
2023-09-05T13:17:58.843Z,101957.50
2023-09-05T13:20:25.578Z,101962.09
2023-09-05T13:22:52.508Z,101965.84
2023-09-05T13:25:20.902Z,101960.44
2023-09-05T13:27:48.548Z,101957.03
2023-09-05T13:30:16.145Z,101958.31
2023-09-05T13:32:42.806Z,101957.41
2023-09-05T13:35:10.840Z,101961.63
2023-09-05T13:37:37.642Z,101957.50
2023-09-05T13:40:05.050Z,101953.31
2023-09-05T13:42:31.844Z,101951.91
2023-09-05T13:44:58.358Z,101945.97
2023-09-05T13:47:25.047Z,101947.59
2023-09-05T13:49:51.467Z,101947.25
2023-09-05T13:52:17.930Z,101950.22
2023-09-05T13:54:46.415Z,101939.25
2023-09-05T13:57:13.668Z,101947.16
2023-09-05T13:59:40.369Z,101940.44
2023-09-05T14:02:07.164Z,101943.25
2023-09-05T14:04:33.734Z,101945.28
2023-09-05T14:07:01.398Z,101943.03
2023-09-05T14:09:27.881Z,101934.19
2023-09-05T14:11:54.403Z,101936.22
2023-09-05T14:14:20.828Z,101933.47
2023-09-05T14:16:56.052Z,101932.19
2023-09-05T14:19:24.095Z,101935.00
2023-09-05T14:21:50.860Z,101933.38
2023-09-05T14:24:17.424Z,101921.97
2023-09-05T14:26:43.869Z,101926.06
2023-09-05T14:29:10.395Z,101916.06
2023-09-05T14:31:36.961Z,101925.50
2023-09-05T14:34:03.695Z,101919.13
2023-09-05T14:36:30.264Z,101917.22
2023-09-05T14:38:57.792Z,101919.34
2023-09-05T14:41:31.918Z,101913.22
2023-09-05T14:44:00.879Z,101917.44
2023-09-05T14:46:27.568Z,101927.34
2023-09-05T14:48:54.262Z,101921.59
2023-09-05T14:51:20.761Z,101925.34
2023-09-05T14:53:48.154Z,101922.75
2023-09-05T14:56:15.232Z,101927.81
2023-09-05T14:58:41.691Z,101919.59
2023-09-05T15:01:08.177Z,101916.97
2023-09-05T15:03:34.911Z,101912.63
2023-09-05T15:06:01.411Z,101904.72
2023-09-05T15:08:28.121Z,101913.56
2023-09-05T15:10:54.723Z,101913.81
2023-09-05T15:13:21.173Z,101913.81
2023-09-05T15:15:49.844Z,101904.72
2023-09-05T15:18:16.838Z,101906.63
2023-09-05T15:20:43.409Z,101912.16
2023-09-05T15:23:09.892Z,101906.03
2023-09-05T15:25:37.475Z,101897.03
2023-09-05T15:28:04.206Z,101898.22
2023-09-05T15:30:35.025Z,101891.88
2023-09-05T15:33:01.586Z,101887.75
2023-09-05T15:35:28.493Z,101892.47
2023-09-05T15:37:55.016Z,101890.94
2023-09-05T15:40:22.115Z,101883.38
2023-09-05T15:42:48.559Z,101886.41
2023-09-05T15:45:15.109Z,101886.66
2023-09-05T15:47:42.210Z,101881.69
2023-09-05T15:50:09.309Z,101878.84
2023-09-05T15:52:35.772Z,101871.88
2023-09-05T15:55:02.270Z,101878.22
2023-09-05T15:57:28.895Z,101865.84
2023-09-05T15:59:58.266Z,101879.25
2023-09-05T16:02:24.899Z,101875.03
2023-09-05T16:04:51.362Z,101875.97
2023-09-05T16:07:17.840Z,101875.31
2023-09-05T16:09:44.691Z,101867.13
2023-09-05T16:12:11.443Z,101876.84
2023-09-05T16:14:41.800Z,101868.50
2023-09-05T16:17:08.892Z,101867.44
2023-09-05T16:19:37.212Z,101866.22
2023-09-05T16:22:03.955Z,101875.47
2023-09-05T16:24:30.556Z,101874.53
2023-09-05T16:26:59.199Z,101875.28
2023-09-05T16:29:25.817Z,101868.47
2023-09-05T16:31:52.474Z,101875.41
2023-09-05T16:34:18.952Z,101866.31
2023-09-05T16:36:45.413Z,101869.72
2023-09-05T16:39:11.984Z,101872.06
2023-09-05T16:41:38.569Z,101872.94
2023-09-05T16:44:05.583Z,101868.63
2023-09-05T16:46:32.344Z,101865.13
2023-09-05T16:48:59.039Z,101872.06
2023-09-05T16:51:26.255Z,101873.28
2023-09-05T16:53:52.845Z,101872.47
2023-09-05T16:56:19.761Z,101873.34
2023-09-05T16:58:46.367Z,101881.28
2023-09-05T17:01:13.345Z,101878.41
2023-09-05T17:03:39.943Z,101877.81
2023-09-05T17:06:06.472Z,101877.59
2023-09-05T17:08:33.297Z,101875.91
2023-09-05T17:11:00.343Z,101873.66
2023-09-05T17:13:27.191Z,101872.22
2023-09-05T17:15:54.008Z,101871.19
2023-09-05T17:18:20.982Z,101865.00
2023-09-05T17:20:51.614Z,101868.28
2023-09-05T17:23:22.938Z,101867.25
2023-09-05T17:25:50.394Z,101872.63
2023-09-05T17:28:20.097Z,101874.47
2023-09-05T17:30:47.111Z,101867.84
2023-09-05T17:33:13.965Z,101875.91
2023-09-05T17:35:41.921Z,101862.63
2023-09-05T17:38:08.651Z,101872.72
2023-09-05T17:40:38.124Z,101873.34
2023-09-05T17:43:04.886Z,101874.97
2023-09-05T17:45:31.488Z,101872.44
2023-09-05T17:47:57.956Z,101876.97
2023-09-05T17:50:24.595Z,101877.94
2023-09-05T17:52:51.265Z,101887.63
2023-09-05T17:55:18.135Z,101888.81
2023-09-05T17:57:45.731Z,101887.31
2023-09-05T18:00:13.992Z,101897.78
2023-09-05T18:02:40.552Z,101890.63
